Arbra Airport


Codes: ESUB/
Name: Arbra Airport
City: Arbra
Country: Sweden
Elevation: 0 ft.

Photos at Arbra Airport


   Photos courtesy of SpottingLog. You can add your own sightings and photos by signing up for a free trial today.



No photos found.

Weather at Arbra Airport


Time (UTC)DescriptionTempratureWindCloud coverageVisibilityPressureHumidity
21-Jun-2024 12:00Scattered Clouds20°C4 mph, NW41%10000m1013hPa35%
21-Jun-2024 15:00Broken Clouds20°C2 mph, NW76%10000m1012hPa34%
21-Jun-2024 18:00Overcast Clouds17°C7 mph, E94%10000m1013hPa53%
21-Jun-2024 21:00Overcast Clouds13°C4 mph, E94%10000m1013hPa64%
22-Jun-2024 00:00Broken Clouds12°C4 mph, NE70%10000m1013hPa67%
22-Jun-2024 03:00Overcast Clouds12°C2 mph, NE99%10000m1013hPa73%
22-Jun-2024 06:00Overcast Clouds16°C7 mph, SE100%10000m1013hPa66%
22-Jun-2024 09:00Overcast Clouds20°C7 mph, SE100%10000m1013hPa50%
22-Jun-2024 12:00Overcast Clouds22°C9 mph, SE100%10000m1012hPa45%
22-Jun-2024 15:00Overcast Clouds19°C7 mph, SE100%10000m1011hPa57%
22-Jun-2024 18:00Overcast Clouds16°C4 mph, SE100%10000m1012hPa67%
22-Jun-2024 21:00Overcast Clouds12°C2 mph, E100%10000m1012hPa83%
23-Jun-2024 00:00Overcast Clouds11°C2 mph, E100%10000m1012hPa83%
23-Jun-2024 03:00Overcast Clouds12°C2 mph, SE100%10000m1012hPa77%
23-Jun-2024 06:00Overcast Clouds17°C2 mph, SE100%10000m1012hPa57%
23-Jun-2024 09:00Overcast Clouds22°C2 mph, S100%10000m1011hPa43%
23-Jun-2024 12:00Overcast Clouds23°C4 mph, S97%10000m1010hPa37%
23-Jun-2024 15:00Overcast Clouds17°C4 mph, SE100%10000m1011hPa62%
23-Jun-2024 18:00Overcast Clouds18°C4 mph, SE89%10000m1011hPa55%
23-Jun-2024 21:00Broken Clouds14°C4 mph, S78%10000m1012hPa70%
24-Jun-2024 00:00Broken Clouds13°C7 mph, N59%10000m1014hPa81%
24-Jun-2024 03:00Light Rain12°C9 mph, N100%10000m1016hPa84%
24-Jun-2024 06:00Overcast Clouds14°C9 mph, N98%10000m1018hPa54%
24-Jun-2024 09:00Broken Clouds18°C7 mph, NW75%10000m1018hPa43%
24-Jun-2024 12:00Broken Clouds22°C4 mph, NW80%10000m1018hPa36%
24-Jun-2024 15:00Broken Clouds24°C4 mph, NW75%10000m1017hPa30%
24-Jun-2024 18:00Broken Clouds21°C4 mph, E57%10000m1018hPa45%
24-Jun-2024 21:00Overcast Clouds14°C2 mph, E96%10000m1019hPa66%
25-Jun-2024 00:00Overcast Clouds12°C0 mph, NE85%10000m1020hPa70%
25-Jun-2024 03:00Overcast Clouds13°C2 mph, NW96%10000m1020hPa70%
25-Jun-2024 06:00Broken Clouds20°C2 mph, SW57%10000m1020hPa49%
25-Jun-2024 09:00Clear Sky26°C4 mph, SW7%10000m1019hPa37%
25-Jun-2024 12:00Clear Sky28°C7 mph, SW4%10000m1018hPa31%
25-Jun-2024 15:00Scattered Clouds29°C7 mph, SW32%10000m1017hPa32%
25-Jun-2024 18:00Broken Clouds25°C2 mph, SE59%10000m1017hPa51%
25-Jun-2024 21:00Broken Clouds18°C4 mph, SE54%10000m1018hPa69%
26-Jun-2024 00:00Broken Clouds17°C2 mph, W60%10000m1017hPa74%
26-Jun-2024 03:00Broken Clouds18°C2 mph, W54%10000m1018hPa70%
26-Jun-2024 06:00Broken Clouds24°C2 mph, SW62%10000m1018hPa48%
26-Jun-2024 09:00Scattered Clouds29°C4 mph, SW46%10000m1017hPa34%